Time;durP1;ratioP1;P1;durP2;ratioP2;P2;SDS_P1;SDS_P2;PMS_P1;PMS_P2;Temp;Humidity;BMP_temperature;BMP_pressure;BME280_temperature;BME280_humidity;BME280_pressure;Samples;Min_cycle;Max_cycle;Signal;HPM_P1;HPM_P2
2023/05/05 00:00:15;;;;;;;5.25;4.80;;;;;;;;;;4992422;28;20387;-77
2023/05/05 00:02:41;;;;;;;4.97;4.57;;;;;;;;;;4992175;28;20807;-77
2023/05/05 00:05:07;;;;;;;4.82;4.53;;;;;;;;;;4992004;28;20390;-76
2023/05/05 00:07:33;;;;;;;5.00;4.70;;;;;;;;;;4992161;28;20386;-77
2023/05/05 00:09:59;;;;;;;5.22;4.82;;;;;;;;;;4992249;28;20973;-77
2023/05/05 00:12:25;;;;;;;5.47;4.97;;;;;;;;;;4992211;28;20400;-77
2023/05/05 00:14:51;;;;;;;5.45;5.05;;;;;;;;;;4992042;28;20410;-77
2023/05/05 00:17:17;;;;;;;5.45;5.05;;;;;;;;;;4991106;28;20748;-77
2023/05/05 00:19:43;;;;;;;5.33;4.93;;;;;;;;;;4991704;28;20502;-76
2023/05/05 00:22:09;;;;;;;5.18;4.75;;;;;;;;;;4991588;28;20394;-77
2023/05/05 00:24:35;;;;;;;5.00;4.60;;;;;;;;;;4991682;28;20736;-77
2023/05/05 00:27:02;;;;;;;5.50;5.00;;;;;;;;;;4991705;28;20386;-77
2023/05/05 00:29:28;;;;;;;5.55;4.97;;;;;;;;;;4991802;28;20406;-76
2023/05/05 00:31:55;;;;;;;5.30;4.82;;;;;;;;;;4991920;28;20953;-77
2023/05/05 00:34:21;;;;;;;5.30;4.90;;;;;;;;;;4991623;28;20441;-77
2023/05/05 00:36:47;;;;;;;4.95;4.65;;;;;;;;;;4991789;28;20736;-76
2023/05/05 00:39:13;;;;;;;5.70;5.30;;;;;;;;;;4991940;28;20375;-77
2023/05/05 00:41:40;;;;;;;5.20;4.80;;;;;;;;;;4991434;28;20847;-77
2023/05/05 00:44:06;;;;;;;5.15;4.75;;;;;;;;;;4991712;28;20406;-77
2023/05/05 00:46:33;;;;;;;5.40;5.00;;;;;;;;;;4991741;28;20390;-76
2023/05/05 00:48:59;;;;;;;5.00;4.70;;;;;;;;;;4997701;28;20397;-77
2023/05/05 00:51:26;;;;;;;5.45;5.00;;;;;;;;;;4991804;28;20394;-77
2023/05/05 00:53:52;;;;;;;5.10;4.70;;;;;;;;;;4991690;28;20516;-77
2023/05/05 00:56:19;;;;;;;5.10;4.80;;;;;;;;;;4991703;28;20959;-77
2023/05/05 00:58:45;;;;;;;4.93;4.63;;;;;;;;;;4991794;28;20385;-77
2023/05/05 01:01:12;;;;;;;5.03;4.63;;;;;;;;;;4991583;28;20465;-77
2023/05/05 01:03:39;;;;;;;5.00;4.60;;;;;;;;;;4991636;28;20386;-77
2023/05/05 01:06:14;;;;;;;5.28;4.88;;;;;;;;;;4991539;28;20418;-76
2023/05/05 01:08:53;;;;;;;5.13;4.72;;;;;;;;;;4991688;28;20391;-76
2023/05/05 01:11:30;;;;;;;5.40;4.90;;;;;;;;;;4991538;28;20510;-77
2023/05/05 01:14:12;;;;;;;5.43;4.93;;;;;;;;;;4990894;28;20849;-77
2023/05/05 01:16:40;;;;;;;4.68;4.38;;;;;;;;;;5007280;28;20442;-77
2023/05/05 01:19:14;;;;;;;5.28;4.97;;;;;;;;;;4990736;28;20379;-77
2023/05/05 01:21:46;;;;;;;4.93;4.60;;;;;;;;;;4990880;28;20379;-77
2023/05/05 01:24:31;;;;;;;5.32;4.95;;;;;;;;;;4989372;28;20394;-76
2023/05/05 01:27:15;;;;;;;5.35;4.85;;;;;;;;;;4990881;28;20390;-78
2023/05/05 01:30:00;;;;;;;5.07;4.67;;;;;;;;;;4991076;28;20857;-76
2023/05/05 01:32:27;;;;;;;5.20;4.70;;;;;;;;;;4991074;28;20387;-76
2023/05/05 01:34:57;;;;;;;5.28;4.78;;;;;;;;;;4989827;28;20896;-76
2023/05/05 01:37:26;;;;;;;5.20;4.90;;;;;;;;;;4991224;28;20391;-77
2023/05/05 01:39:55;;;;;;;5.00;4.70;;;;;;;;;;4990982;28;20386;-76
2023/05/05 01:42:21;;;;;;;4.80;4.50;;;;;;;;;;4990989;28;20402;-76
2023/05/05 01:44:48;;;;;;;5.28;4.88;;;;;;;;;;4991456;28;20478;-76
2023/05/05 01:47:15;;;;;;;5.32;4.93;;;;;;;;;;4994357;28;20386;-75
2023/05/05 01:49:43;;;;;;;5.47;4.97;;;;;;;;;;4994523;28;20394;-77
2023/05/05 01:52:10;;;;;;;5.22;4.68;;;;;;;;;;4994436;28;21006;-76
2023/05/05 01:54:36;;;;;;;5.00;4.60;;;;;;;;;;4990213;28;20771;-77
2023/05/05 01:57:03;;;;;;;4.90;4.60;;;;;;;;;;4975912;28;20388;-77
2023/05/05 01:59:30;;;;;;;5.28;4.88;;;;;;;;;;4976032;28;20462;-77
2023/05/05 02:01:57;;;;;;;4.93;4.43;;;;;;;;;;4982815;28;20429;-77
2023/05/05 02:04:24;;;;;;;5.05;4.75;;;;;;;;;;4983654;28;20378;-76
2023/05/05 02:06:51;;;;;;;5.40;4.90;;;;;;;;;;4985000;28;20404;-77
2023/05/05 02:09:18;;;;;;;5.30;4.90;;;;;;;;;;4983880;28;20387;-76
2023/05/05 02:11:44;;;;;;;5.03;4.72;;;;;;;;;;4993793;28;20420;-75
2023/05/05 02:14:11;;;;;;;5.40;5.00;;;;;;;;;;4992727;28;20942;-76
2023/05/05 02:16:40;;;;;;;5.95;5.40;;;;;;;;;;4990217;28;20418;-76
2023/05/05 02:19:06;;;;;;;5.37;4.97;;;;;;;;;;4992714;28;20389;-76
2023/05/05 02:21:33;;;;;;;5.43;5.03;;;;;;;;;;4989332;28;20904;-77
2023/05/05 02:23:59;;;;;;;5.60;5.20;;;;;;;;;;4992026;28;20481;-75
2023/05/05 02:26:25;;;;;;;5.38;5.00;;;;;;;;;;4991978;28;20755;-75
2023/05/05 02:28:54;;;;;;;5.32;4.88;;;;;;;;;;4991709;28;20417;-75
2023/05/05 02:31:22;;;;;;;5.22;4.80;;;;;;;;;;4991816;28;20390;-75
2023/05/05 02:33:49;;;;;;;5.28;4.88;;;;;;;;;;4992292;28;20915;-77
2023/05/05 02:36:19;;;;;;;5.15;4.85;;;;;;;;;;4991989;28;20418;-76
2023/05/05 02:38:46;;;;;;;5.10;4.70;;;;;;;;;;4993010;28;20481;-75
2023/05/05 02:41:15;;;;;;;5.30;4.80;;;;;;;;;;4992949;28;20390;-77
2023/05/05 02:43:42;;;;;;;5.30;4.95;;;;;;;;;;4992066;28;20891;-76
2023/05/05 02:46:08;;;;;;;5.30;4.90;;;;;;;;;;4995089;28;20872;-76
2023/05/05 02:48:34;;;;;;;5.27;4.97;;;;;;;;;;4977669;28;20900;-75
2023/05/05 02:51:00;;;;;;;5.35;4.95;;;;;;;;;;4992884;28;20429;-75
2023/05/05 02:53:27;;;;;;;5.03;4.63;;;;;;;;;;4992745;28;20414;-76
2023/05/05 02:56:01;;;;;;;5.20;4.80;;;;;;;;;;4992275;28;20504;-76
2023/05/05 02:58:46;;;;;;;5.25;4.78;;;;;;;;;;4992614;28;20379;-77
2023/05/05 03:01:20;;;;;;;5.35;4.95;;;;;;;;;;4992093;28;20379;-76
2023/05/05 03:03:51;;;;;;;5.40;5.00;;;;;;;;;;4988427;28;20445;-76
2023/05/05 03:06:19;;;;;;;5.25;4.80;;;;;;;;;;4991911;28;20457;-76
2023/05/05 03:08:49;;;;;;;5.18;4.80;;;;;;;;;;4983623;28;20974;-76
2023/05/05 03:11:22;;;;;;;5.72;5.22;;;;;;;;;;4993416;28;20411;-77
2023/05/05 03:13:50;;;;;;;5.25;4.95;;;;;;;;;;4992432;28;20391;-76
2023/05/05 03:16:17;;;;;;;5.50;5.10;;;;;;;;;;4992223;28;20410;-76
2023/05/05 03:18:45;;;;;;;5.53;5.07;;;;;;;;;;4992256;28;20390;-76
2023/05/05 03:21:11;;;;;;;5.30;5.00;;;;;;;;;;4992473;28;20378;-76
2023/05/05 03:23:37;;;;;;;5.18;4.72;;;;;;;;;;4990532;28;20386;-77
2023/05/05 03:26:03;;;;;;;5.18;4.88;;;;;;;;;;4991711;28;20379;-76
2023/05/05 03:28:29;;;;;;;5.40;5.00;;;;;;;;;;4990305;28;20405;-76
2023/05/05 03:30:55;;;;;;;4.97;4.63;;;;;;;;;;4991769;28;20760;-76
2023/05/05 03:33:21;;;;;;;5.35;4.95;;;;;;;;;;4991128;28;20417;-76
2023/05/05 03:35:47;;;;;;;6.07;5.57;;;;;;;;;;4991245;28;20960;-76
2023/05/05 03:38:13;;;;;;;5.53;5.10;;;;;;;;;;4991935;28;20390;-76
2023/05/05 03:40:39;;;;;;;5.68;5.22;;;;;;;;;;4992731;28;20400;-76
2023/05/05 03:43:06;;;;;;;5.38;5.03;;;;;;;;;;4992322;28;20432;-75
2023/05/05 03:45:32;;;;;;;5.30;4.80;;;;;;;;;;4992698;28;20422;-76
2023/05/05 03:47:58;;;;;;;6.05;5.53;;;;;;;;;;4992627;28;20414;-76
2023/05/05 03:50:24;;;;;;;5.20;4.90;;;;;;;;;;4991812;28;20397;-77
2023/05/05 03:52:50;;;;;;;5.43;5.03;;;;;;;;;;4983602;28;20378;-76
2023/05/05 03:55:16;;;;;;;5.57;5.18;;;;;;;;;;4992516;28;20410;-76
2023/05/05 03:57:45;;;;;;;4.90;4.47;;;;;;;;;;4992275;28;20803;-76
2023/05/05 04:00:12;;;;;;;5.15;4.75;;;;;;;;;;4992104;28;20382;-77
2023/05/05 04:02:37;;;;;;;5.55;4.97;;;;;;;;;;4992124;28;20390;-77
2023/05/05 04:05:04;;;;;;;5.20;4.90;;;;;;;;;;4992380;28;20387;-77
2023/05/05 04:07:30;;;;;;;4.73;4.43;;;;;;;;;;4991744;28;20783;-77
2023/05/05 04:09:56;;;;;;;4.95;4.65;;;;;;;;;;4988426;28;20421;-77
2023/05/05 04:12:22;;;;;;;5.68;5.15;;;;;;;;;;4987134;28;20416;-77
2023/05/05 04:14:48;;;;;;;5.15;4.75;;;;;;;;;;4991167;28;20414;-77
2023/05/05 04:17:13;;;;;;;5.85;5.32;;;;;;;;;;4991358;28;20469;-77
2023/05/05 04:19:39;;;;;;;5.40;5.00;;;;;;;;;;4990976;28;20922;-76
2023/05/05 04:22:05;;;;;;;5.45;5.00;;;;;;;;;;4991236;28;20541;-76
2023/05/05 04:24:31;;;;;;;5.38;4.90;;;;;;;;;;4990376;28;20387;-77
2023/05/05 04:26:57;;;;;;;5.22;4.82;;;;;;;;;;4991477;28;20387;-76
2023/05/05 04:29:24;;;;;;;5.20;4.80;;;;;;;;;;4991590;28;20469;-76
2023/05/05 04:31:49;;;;;;;5.10;4.70;;;;;;;;;;4991858;28;20390;-76
2023/05/05 04:34:15;;;;;;;5.30;4.80;;;;;;;;;;4990681;28;20394;-77
2023/05/05 04:36:41;;;;;;;5.38;4.97;;;;;;;;;;4991162;28;20891;-77
2023/05/05 04:39:07;;;;;;;4.97;4.47;;;;;;;;;;4991589;28;20453;-76
2023/05/05 04:41:34;;;;;;;4.75;4.45;;;;;;;;;;4991707;28;20389;-77
2023/05/05 04:44:00;;;;;;;4.78;4.47;;;;;;;;;;4991317;28;20417;-77
2023/05/05 04:46:26;;;;;;;5.00;4.60;;;;;;;;;;4990670;28;20398;-77
2023/05/05 04:48:52;;;;;;;5.30;4.90;;;;;;;;;;4990149;28;20390;-77
2023/05/05 04:51:18;;;;;;;4.78;4.45;;;;;;;;;;4990738;28;20397;-77
2023/05/05 04:53:44;;;;;;;4.90;4.50;;;;;;;;;;4991779;28;20852;-77
2023/05/05 04:56:09;;;;;;;5.03;4.72;;;;;;;;;;4991156;28;20505;-77
2023/05/05 04:58:35;;;;;;;4.50;4.20;;;;;;;;;;4991510;28;20477;-77
2023/05/05 05:01:02;;;;;;;5.45;4.68;;;;;;;;;;4991725;28;20375;-76
2023/05/05 05:03:28;;;;;;;4.53;4.20;;;;;;;;;;4991686;28;20382;-77
2023/05/05 05:05:54;;;;;;;4.60;4.20;;;;;;;;;;4991649;28;20795;-78
2023/05/05 05:08:20;;;;;;;5.05;4.65;;;;;;;;;;4991867;28;20603;-77
2023/05/05 05:10:46;;;;;;;4.72;4.40;;;;;;;;;;4991550;28;20379;-77
2023/05/05 05:13:12;;;;;;;4.90;4.50;;;;;;;;;;4994046;28;20382;-77
2023/05/05 05:15:38;;;;;;;5.00;4.60;;;;;;;;;;4991387;28;20546;-77
2023/05/05 05:18:04;;;;;;;5.18;4.57;;;;;;;;;;4991233;28;20938;-79
2023/05/05 05:20:31;;;;;;;5.22;4.72;;;;;;;;;;4993432;28;20481;-79
2023/05/05 05:22:57;;;;;;;4.93;4.53;;;;;;;;;;4994490;28;20390;-79
2023/05/05 05:25:23;;;;;;;4.37;4.07;;;;;;;;;;4992953;28;20386;-80
2023/05/05 05:27:49;;;;;;;5.72;5.32;;;;;;;;;;4993657;28;20393;-79
2023/05/05 05:30:15;;;;;;;5.18;4.78;;;;;;;;;;4993924;28;20386;-81
2023/05/05 05:32:41;;;;;;;4.78;4.38;;;;;;;;;;4994767;28;20398;-81
2023/05/05 05:35:07;;;;;;;5.10;4.80;;;;;;;;;;4994944;28;20406;-81
2023/05/05 05:37:34;;;;;;;5.05;4.65;;;;;;;;;;4995005;28;20457;-81
2023/05/05 05:39:59;;;;;;;4.88;4.47;;;;;;;;;;4994983;28;20383;-81
2023/05/05 05:42:25;;;;;;;5.25;4.50;;;;;;;;;;4994813;28;20469;-81
2023/05/05 05:44:51;;;;;;;4.90;4.50;;;;;;;;;;4994523;28;20803;-81
2023/05/05 05:47:17;;;;;;;5.53;5.03;;;;;;;;;;4994864;28;20379;-82
2023/05/05 05:49:43;;;;;;;5.43;4.93;;;;;;;;;;4994747;28;20465;-81
2023/05/05 05:52:09;;;;;;;5.25;4.85;;;;;;;;;;4994644;28;20390;-80
2023/05/05 05:54:35;;;;;;;5.50;5.10;;;;;;;;;;4994507;28;20405;-80
2023/05/05 05:57:01;;;;;;;5.50;5.10;;;;;;;;;;4994405;28;20417;-80
2023/05/05 05:59:28;;;;;;;6.28;5.60;;;;;;;;;;4994212;28;20443;-80
2023/05/05 06:01:57;;;;;;;5.85;5.45;;;;;;;;;;4994527;28;20393;-80
2023/05/05 06:04:23;;;;;;;5.93;5.30;;;;;;;;;;4994367;28;20383;-80
2023/05/05 06:06:49;;;;;;;5.50;5.10;;;;;;;;;;4994541;28;20386;-80
2023/05/05 06:09:15;;;;;;;5.80;5.20;;;;;;;;;;4994324;28;20382;-80
2023/05/05 06:11:41;;;;;;;5.57;5.18;;;;;;;;;;4994347;28;20391;-80
2023/05/05 06:14:07;;;;;;;5.13;4.72;;;;;;;;;;4994423;28;20879;-80
2023/05/05 06:16:33;;;;;;;5.28;4.60;;;;;;;;;;4994199;28;20418;-80
2023/05/05 06:18:59;;;;;;;4.93;4.53;;;;;;;;;;4994269;28;20375;-80
2023/05/05 06:21:26;;;;;;;5.30;4.80;;;;;;;;;;4994173;28;20461;-79
2023/05/05 06:23:52;;;;;;;5.78;5.28;;;;;;;;;;4992996;28;20384;-80
2023/05/05 06:26:18;;;;;;;5.80;5.30;;;;;;;;;;4993582;28;20445;-80
2023/05/05 06:28:44;;;;;;;6.40;5.80;;;;;;;;;;4993847;28;20395;-80
2023/05/05 06:31:11;;;;;;;6.00;5.50;;;;;;;;;;4992923;28;20418;-80
2023/05/05 06:33:37;;;;;;;6.40;5.80;;;;;;;;;;4987060;28;20437;-79
2023/05/05 06:36:04;;;;;;;6.80;6.30;;;;;;;;;;4992996;28;20536;-80
2023/05/05 06:38:30;;;;;;;7.50;7.00;;;;;;;;;;4992499;28;20401;-80
2023/05/05 06:40:57;;;;;;;6.90;6.40;;;;;;;;;;4991940;28;20379;-80
2023/05/05 06:43:23;;;;;;;6.43;5.93;;;;;;;;;;4993042;28;20410;-81
2023/05/05 06:45:49;;;;;;;6.60;6.00;;;;;;;;;;4993857;28;20386;-79
2023/05/05 06:48:15;;;;;;;7.63;6.93;;;;;;;;;;4993678;28;20457;-80
2023/05/05 06:50:41;;;;;;;7.25;6.50;;;;;;;;;;4993664;28;20390;-80
2023/05/05 06:53:07;;;;;;;7.80;7.00;;;;;;;;;;4992862;28;20383;-80
2023/05/05 06:55:33;;;;;;;8.23;7.53;;;;;;;;;;4992958;28;20872;-80
2023/05/05 06:57:59;;;;;;;9.13;8.23;;;;;;;;;;4993616;28;20383;-80
2023/05/05 07:00:25;;;;;;;8.48;7.78;;;;;;;;;;4993547;28;20462;-80
2023/05/05 07:02:51;;;;;;;8.65;7.85;;;;;;;;;;4993447;28;20390;-80
2023/05/05 07:05:17;;;;;;;7.25;6.55;;;;;;;;;;5005869;28;20393;-80
2023/05/05 07:07:51;;;;;;;8.20;7.50;;;;;;;;;;4996158;28;20411;-80
2023/05/05 07:10:17;;;;;;;7.37;6.67;;;;;;;;;;4993228;28;20410;-80
2023/05/05 07:12:43;;;;;;;7.85;7.05;;;;;;;;;;5008237;28;20881;-79
2023/05/05 07:15:09;;;;;;;9.25;8.27;;;;;;;;;;4993206;28;20406;-79
2023/05/05 07:17:35;;;;;;;10.45;9.35;;;;;;;;;;4993138;28;20378;-79
2023/05/05 07:20:01;;;;;;;10.20;9.07;;;;;;;;;;4993175;28;20938;-80
2023/05/05 07:22:27;;;;;;;9.40;7.85;;;;;;;;;;4993100;28;20835;-80
2023/05/05 07:24:54;;;;;;;9.73;8.73;;;;;;;;;;4989777;28;20485;-81
2023/05/05 07:27:21;;;;;;;10.65;9.32;;;;;;;;;;4993088;28;20425;-81
2023/05/05 07:29:47;;;;;;;11.15;9.98;;;;;;;;;;4992880;28;20392;-80
2023/05/05 07:32:13;;;;;;;13.07;10.73;;;;;;;;;;4992906;28;20382;-81
2023/05/05 07:34:39;;;;;;;10.50;9.43;;;;;;;;;;4992654;28;20478;-81
2023/05/05 07:37:05;;;;;;;10.05;9.05;;;;;;;;;;4992732;28;20864;-80
2023/05/05 07:39:32;;;;;;;8.87;7.70;;;;;;;;;;4992417;28;20450;-81
2023/05/05 07:41:58;;;;;;;11.40;9.02;;;;;;;;;;4992218;28;20395;-81
2023/05/05 07:44:24;;;;;;;10.33;9.23;;;;;;;;;;4992151;28;20402;-79
2023/05/05 07:46:50;;;;;;;9.20;8.30;;;;;;;;;;4992276;28;20386;-80
2023/05/05 07:49:17;;;;;;;9.50;8.55;;;;;;;;;;4992407;28;20390;-80
2023/05/05 07:51:43;;;;;;;10.68;8.70;;;;;;;;;;4992150;28;20399;-80
2023/05/05 07:54:09;;;;;;;14.15;9.50;;;;;;;;;;4991916;28;20397;-84
2023/05/05 07:56:35;;;;;;;12.60;10.55;;;;;;;;;;4992896;28;20493;-84
2023/05/05 07:59:01;;;;;;;13.27;10.23;;;;;;;;;;4992521;28;20429;-84
2023/05/05 08:01:27;;;;;;;11.50;9.50;;;;;;;;;;4975309;28;20378;-84
2023/05/05 08:03:53;;;;;;;15.30;11.75;;;;;;;;;;4992641;28;20849;-84
2023/05/05 08:06:20;;;;;;;16.27;12.02;;;;;;;;;;4992465;28;20446;-85
2023/05/05 08:08:50;;;;;;;17.08;11.48;;;;;;;;;;4992646;28;20473;-84
2023/05/05 08:11:16;;;;;;;15.95;10.25;;;;;;;;;;4992295;28;20473;-84
2023/05/05 08:13:43;;;;;;;27.48;10.18;;;;;;;;;;4992457;28;20389;-84
2023/05/05 08:16:09;;;;;;;9.38;7.45;;;;;;;;;;4975162;28;20438;-84
2023/05/05 08:18:37;;;;;;;9.15;6.53;;;;;;;;;;4992197;28;20710;-84
2023/05/05 08:21:06;;;;;;;5.73;5.10;;;;;;;;;;4991996;28;20910;-85
2023/05/05 08:23:33;;;;;;;8.02;5.72;;;;;;;;;;4992120;28;20383;-84
2023/05/05 08:25:59;;;;;;;6.88;5.50;;;;;;;;;;4990951;28;20418;-85
2023/05/05 08:28:25;;;;;;;5.30;4.80;;;;;;;;;;4991843;28;20421;-84
2023/05/05 08:30:51;;;;;;;7.20;5.35;;;;;;;;;;4992001;28;20418;-84
2023/05/05 08:33:17;;;;;;;6.63;5.32;;;;;;;;;;4990508;28;20414;-84
2023/05/05 08:35:43;;;;;;;6.43;5.40;;;;;;;;;;4991472;28;20947;-84
2023/05/05 08:38:10;;;;;;;5.53;4.97;;;;;;;;;;4991765;28;20390;-84
2023/05/05 08:40:37;;;;;;;5.10;4.13;;;;;;;;;;4991884;28;20739;-84
2023/05/05 08:43:03;;;;;;;4.82;3.63;;;;;;;;;;4991566;28;20764;-84
2023/05/05 08:45:29;;;;;;;4.85;3.47;;;;;;;;;;4991738;28;20398;-84
2023/05/05 08:48:02;;;;;;;3.58;3.20;;;;;;;;;;4991926;28;20387;-84
2023/05/05 08:50:29;;;;;;;2.75;2.55;;;;;;;;;;4991660;28;20390;-84
2023/05/05 08:53:09;;;;;;;6.18;2.80;;;;;;;;;;4992215;28;20383;-84
2023/05/05 08:55:35;;;;;;;2.53;2.33;;;;;;;;;;4995897;28;20410;-85
2023/05/05 08:58:04;;;;;;;3.83;2.40;;;;;;;;;;4995998;28;20521;-85
2023/05/05 09:00:30;;;;;;;2.50;2.25;;;;;;;;;;4995908;28;20386;-85
2023/05/05 09:02:57;;;;;;;4.25;2.30;;;;;;;;;;4997603;28;20377;-85
2023/05/05 09:05:23;;;;;;;2.90;2.30;;;;;;;;;;4995771;28;20391;-85
2023/05/05 09:07:50;;;;;;;2.85;2.47;;;;;;;;;;4978178;28;20872;-86
2023/05/05 09:10:16;;;;;;;3.08;2.70;;;;;;;;;;4995666;28;20477;-85
2023/05/05 09:12:42;;;;;;;3.95;3.10;;;;;;;;;;4997866;28;20382;-83
2023/05/05 09:15:08;;;;;;;4.45;3.70;;;;;;;;;;4995439;28;20460;-81
2023/05/05 09:17:35;;;;;;;4.72;3.55;;;;;;;;;;4995539;28;20387;-82
2023/05/05 09:20:03;;;;;;;4.15;3.60;;;;;;;;;;4995353;28;20901;-82
2023/05/05 09:22:36;;;;;;;4.65;3.05;;;;;;;;;;4995276;28;20466;-82
2023/05/05 09:25:02;;;;;;;4.72;3.60;;;;;;;;;;4995039;28;20390;-82
2023/05/05 09:27:28;;;;;;;6.53;3.50;;;;;;;;;;4993903;28;20383;-82
2023/05/05 09:29:55;;;;;;;3.72;3.20;;;;;;;;;;4994777;28;20390;-82
2023/05/05 09:32:21;;;;;;;4.10;3.70;;;;;;;;;;4986982;28;20430;-81
2023/05/05 09:35:00;;;;;;;4.00;3.60;;;;;;;;;;4986613;28;20430;-81
2023/05/05 09:37:27;;;;;;;3.90;3.42;;;;;;;;;;4991771;28;20385;-80
2023/05/05 09:39:54;;;;;;;4.90;3.95;;;;;;;;;;4982818;28;20379;-81
2023/05/05 09:42:20;;;;;;;4.38;3.60;;;;;;;;;;4993260;28;20433;-80
2023/05/05 09:44:46;;;;;;;5.55;4.05;;;;;;;;;;4994659;28;20382;-81
2023/05/05 09:47:12;;;;;;;5.07;3.92;;;;;;;;;;4992477;28;20461;-81
2023/05/05 09:49:38;;;;;;;3.92;3.63;;;;;;;;;;4991925;28;20383;-81
2023/05/05 09:52:14;;;;;;;5.43;4.50;;;;;;;;;;4988257;28;20398;-81
2023/05/05 09:54:40;;;;;;;7.93;4.80;;;;;;;;;;4994410;28;20721;-81
2023/05/05 09:57:06;;;;;;;5.57;4.80;;;;;;;;;;4994625;28;20865;-81
2023/05/05 09:59:32;;;;;;;5.20;4.10;;;;;;;;;;4993777;28;20452;-81
2023/05/05 10:02:12;;;;;;;4.50;4.10;;;;;;;;;;4993126;28;20445;-81
2023/05/05 10:04:38;;;;;;;6.55;4.30;;;;;;;;;;4992657;28;20389;-81
2023/05/05 10:07:04;;;;;;;5.57;4.45;;;;;;;;;;4992250;28;20864;-81
2023/05/05 10:09:31;;;;;;;4.80;4.30;;;;;;;;;;4993135;28;20387;-81
2023/05/05 10:11:58;;;;;;;5.07;4.32;;;;;;;;;;4992909;28;20379;-82
2023/05/05 10:14:25;;;;;;;6.93;3.90;;;;;;;;;;4993187;28;20930;-82
2023/05/05 10:16:51;;;;;;;5.22;3.80;;;;;;;;;;4992246;28;20411;-81
2023/05/05 10:19:20;;;;;;;5.07;3.80;;;;;;;;;;4992806;28;20391;-82
2023/05/05 10:21:47;;;;;;;3.87;3.47;;;;;;;;;;4992701;28;20467;-82
2023/05/05 10:24:16;;;;;;;6.68;3.65;;;;;;;;;;4992668;28;20390;-82
2023/05/05 10:26:43;;;;;;;4.20;3.55;;;;;;;;;;4992508;28;20391;-82
2023/05/05 10:29:28;;;;;;;4.90;3.47;;;;;;;;;;4991285;28;20390;-81
2023/05/05 10:31:56;;;;;;;4.28;3.10;;;;;;;;;;4992253;28;20398;-81
2023/05/05 10:34:28;;;;;;;4.20;3.27;;;;;;;;;;4991712;28;20452;-82
2023/05/05 10:36:56;;;;;;;5.30;3.75;;;;;;;;;;4991706;28;20958;-82
2023/05/05 10:39:23;;;;;;;4.00;3.70;;;;;;;;;;4991951;28;20378;-82
2023/05/05 10:41:51;;;;;;;5.22;3.53;;;;;;;;;;4992229;28;20744;-82
2023/05/05 10:44:17;;;;;;;3.47;3.10;;;;;;;;;;4992429;28;20414;-82
2023/05/05 10:46:43;;;;;;;3.95;3.55;;;;;;;;;;4992299;28;20382;-82
2023/05/05 10:49:23;;;;;;;3.22;2.80;;;;;;;;;;4993096;28;20397;-82
2023/05/05 10:51:49;;;;;;;3.60;3.30;;;;;;;;;;4993778;28;20868;-82
2023/05/05 10:54:18;;;;;;;3.47;2.80;;;;;;;;;;4975786;28;20402;-82
2023/05/05 10:56:44;;;;;;;4.10;3.27;;;;;;;;;;4992258;28;20430;-82
2023/05/05 10:59:30;;;;;;;3.65;3.13;;;;;;;;;;4992090;28;20488;-83
2023/05/05 11:01:56;;;;;;;6.00;3.58;;;;;;;;;;4993253;28;20378;-82
2023/05/05 11:04:23;;;;;;;5.60;3.38;;;;;;;;;;4993470;28;20387;-83
2023/05/05 11:07:07;;;;;;;4.50;3.60;;;;;;;;;;4993541;28;20386;-82
2023/05/05 11:09:40;;;;;;;3.33;2.50;;;;;;;;;;4993323;28;20473;-82
2023/05/05 11:12:06;;;;;;;3.03;2.72;;;;;;;;;;4994608;28;20419;-82
2023/05/05 11:14:32;;;;;;;4.25;2.60;;;;;;;;;;4977107;28;20405;-82
2023/05/05 11:16:59;;;;;;;3.25;2.95;;;;;;;;;;4994007;28;20410;-82
2023/05/05 11:19:43;;;;;;;3.60;3.28;;;;;;;;;;4992864;28;20386;-82
2023/05/05 11:22:09;;;;;;;4.50;3.50;;;;;;;;;;4985772;28;20378;-82
2023/05/05 11:24:36;;;;;;;3.50;3.20;;;;;;;;;;4991722;28;20730;-82
2023/05/05 11:27:03;;;;;;;3.83;3.22;;;;;;;;;;4991347;28;20382;-83
2023/05/05 11:30:07;;;;;;;3.83;3.05;;;;;;;;;;4990497;28;20386;-82
2023/05/05 11:32:33;;;;;;;4.45;3.20;;;;;;;;;;4968563;28;20401;-83
2023/05/05 11:35:00;;;;;;;3.83;3.08;;;;;;;;;;4969327;28;20423;-79
2023/05/05 11:37:29;;;;;;;5.05;3.38;;;;;;;;;;4970147;28;20388;-79
2023/05/05 11:40:20;;;;;;;4.45;3.13;;;;;;;;;;4971098;28;20401;-79
2023/05/05 11:42:47;;;;;;;7.60;3.57;;;;;;;;;;4970204;28;20902;-82
2023/05/05 11:45:23;;;;;;;5.03;3.15;;;;;;;;;;4966184;28;20422;-79
2023/05/05 11:47:49;;;;;;;4.80;3.50;;;;;;;;;;4953750;28;20809;-80
2023/05/05 11:50:16;;;;;;;4.05;3.45;;;;;;;;;;4971102;28;20488;-79
2023/05/05 11:52:42;;;;;;;5.03;3.92;;;;;;;;;;4970827;28;20928;-78
2023/05/05 11:55:08;;;;;;;5.68;4.05;;;;;;;;;;4962973;28;20421;-78
2023/05/05 11:57:34;;;;;;;5.10;4.60;;;;;;;;;;4969304;28;20487;-78
2023/05/05 12:00:03;;;;;;;7.13;4.63;;;;;;;;;;4969010;28;20407;-78
2023/05/05 12:02:30;;;;;;;5.90;4.00;;;;;;;;;;4972801;28;20390;-79
2023/05/05 12:04:56;;;;;;;5.88;4.28;;;;;;;;;;4990644;28;20442;-79
2023/05/05 12:07:24;;;;;;;4.80;3.75;;;;;;;;;;4991022;28;20462;-79
2023/05/05 12:09:50;;;;;;;4.80;3.67;;;;;;;;;;4989493;28;20922;-79
2023/05/05 12:12:16;;;;;;;7.55;4.20;;;;;;;;;;4991811;28;20873;-79
2023/05/05 12:14:46;;;;;;;6.88;5.25;;;;;;;;;;4991673;28;20481;-79
2023/05/05 12:17:12;;;;;;;5.57;4.10;;;;;;;;;;4991795;28;20822;-79
2023/05/05 12:19:44;;;;;;;5.35;3.38;;;;;;;;;;4992337;28;20390;-79
2023/05/05 12:22:17;;;;;;;5.00;2.65;;;;;;;;;;4992245;28;20382;-79
2023/05/05 12:24:43;;;;;;;4.28;2.50;;;;;;;;;;4992204;28;20387;-79
2023/05/05 12:27:09;;;;;;;2.50;1.95;;;;;;;;;;4992184;28;20884;-80
2023/05/05 12:29:35;;;;;;;2.85;1.83;;;;;;;;;;4991689;28;20465;-79
2023/05/05 12:32:01;;;;;;;2.97;2.10;;;;;;;;;;4991921;28;20481;-79
2023/05/05 12:34:28;;;;;;;3.13;2.08;;;;;;;;;;4991691;28;20386;-79
2023/05/05 12:36:54;;;;;;;2.58;2.00;;;;;;;;;;4991810;28;20411;-79
2023/05/05 12:39:20;;;;;;;3.22;2.53;;;;;;;;;;4992222;28;20383;-79
2023/05/05 12:41:46;;;;;;;4.80;2.27;;;;;;;;;;4992054;28;20501;-78
2023/05/05 12:44:12;;;;;;;3.90;2.15;;;;;;;;;;4991614;28;20772;-79
2023/05/05 12:46:45;;;;;;;3.55;1.88;;;;;;;;;;4991920;28;20387;-79
2023/05/05 12:49:11;;;;;;;3.00;2.00;;;;;;;;;;4991222;28;20417;-79
2023/05/05 12:51:37;;;;;;;4.38;2.20;;;;;;;;;;4990642;28;20440;-79
2023/05/05 12:54:04;;;;;;;3.42;2.20;;;;;;;;;;4991505;28;20389;-79
2023/05/05 12:56:31;;;;;;;2.60;2.15;;;;;;;;;;4991769;28;20433;-79
2023/05/05 12:58:57;;;;;;;4.05;2.10;;;;;;;;;;4991680;28;20378;-79
2023/05/05 13:01:23;;;;;;;3.90;1.90;;;;;;;;;;4991538;28;20440;-79
2023/05/05 13:04:09;;;;;;;2.65;2.10;;;;;;;;;;4988812;28;20433;-79
2023/05/05 13:06:36;;;;;;;2.53;1.90;;;;;;;;;;4992633;28;20382;-79
2023/05/05 13:09:02;;;;;;;3.28;2.28;;;;;;;;;;4991265;28;20541;-79
2023/05/05 13:11:28;;;;;;;3.67;2.25;;;;;;;;;;4997514;28;20911;-79
2023/05/05 13:13:54;;;;;;;3.50;2.15;;;;;;;;;;4991600;28;20480;-79
2023/05/05 13:16:20;;;;;;;3.88;2.45;;;;;;;;;;4990557;28;20453;-79
2023/05/05 13:18:46;;;;;;;3.15;2.13;;;;;;;;;;4991385;28;20398;-79
2023/05/05 13:21:13;;;;;;;3.33;2.28;;;;;;;;;;4991583;28;20398;-79
2023/05/05 13:23:43;;;;;;;2.67;2.30;;;;;;;;;;4991542;28;20473;-79
2023/05/05 13:26:09;;;;;;;2.78;2.10;;;;;;;;;;4986404;28;20418;-79
2023/05/05 13:28:35;;;;;;;2.40;2.10;;;;;;;;;;4991576;28;20422;-79
2023/05/05 13:31:01;;;;;;;1.90;1.80;;;;;;;;;;4991514;28;20414;-79
2023/05/05 13:33:27;;;;;;;2.08;1.88;;;;;;;;;;4991451;28;20393;-79
2023/05/05 13:35:52;;;;;;;3.40;2.10;;;;;;;;;;4991285;28;20891;-79
2023/05/05 13:38:18;;;;;;;2.30;1.90;;;;;;;;;;4991451;28;20514;-79
2023/05/05 13:40:44;;;;;;;2.92;1.70;;;;;;;;;;4992057;28;20393;-79
2023/05/05 13:43:10;;;;;;;2.05;1.80;;;;;;;;;;4994483;28;20811;-79
2023/05/05 13:45:36;;;;;;;3.45;1.70;;;;;;;;;;4995036;28;20386;-79
2023/05/05 13:48:02;;;;;;;3.67;1.70;;;;;;;;;;4994938;28;20417;-79
2023/05/05 13:50:28;;;;;;;2.20;1.80;;;;;;;;;;4994829;28;20928;-79
2023/05/05 13:52:55;;;;;;;2.50;1.80;;;;;;;;;;4994947;28;20482;-79
2023/05/05 13:55:21;;;;;;;2.42;1.73;;;;;;;;;;4994852;28;20406;-79
2023/05/05 13:57:46;;;;;;;2.40;1.67;;;;;;;;;;4994739;28;20390;-79
2023/05/05 14:00:13;;;;;;;3.45;1.90;;;;;;;;;;4994749;28;20383;-79
2023/05/05 14:02:39;;;;;;;2.53;1.63;;;;;;;;;;4994280;28;20398;-79
2023/05/05 14:05:05;;;;;;;1.95;1.73;;;;;;;;;;4994623;28;20729;-79
2023/05/05 14:07:32;;;;;;;3.72;1.60;;;;;;;;;;4994449;28;20780;-79
2023/05/05 14:09:58;;;;;;;2.90;1.55;;;;;;;;;;4994684;28;20389;-79
2023/05/05 14:12:24;;;;;;;1.83;1.63;;;;;;;;;;4994490;28;20386;-79
2023/05/05 14:14:50;;;;;;;1.73;1.63;;;;;;;;;;4994384;28;20393;-79
2023/05/05 14:17:16;;;;;;;2.35;1.80;;;;;;;;;;4994404;28;20438;-79
2023/05/05 14:19:42;;;;;;;2.53;1.80;;;;;;;;;;4994326;28;20389;-79
2023/05/05 14:22:07;;;;;;;3.63;1.80;;;;;;;;;;4994323;28;20748;-80
2023/05/05 14:24:33;;;;;;;4.72;2.00;;;;;;;;;;4993928;28;20378;-79
2023/05/05 14:27:01;;;;;;;4.57;2.10;;;;;;;;;;4994229;28;20808;-79
2023/05/05 14:29:27;;;;;;;5.00;1.90;;;;;;;;;;4994266;28;20383;-79
2023/05/05 14:31:53;;;;;;;2.45;1.88;;;;;;;;;;4992053;28;20407;-79
2023/05/05 14:34:19;;;;;;;2.72;1.90;;;;;;;;;;4990506;28;20963;-80
2023/05/05 14:36:45;;;;;;;2.78;1.80;;;;;;;;;;4993894;28;20410;-80
2023/05/05 14:39:11;;;;;;;1.90;1.60;;;;;;;;;;4994127;28;20394;-80
2023/05/05 14:41:37;;;;;;;2.30;1.80;;;;;;;;;;4993899;28;20860;-80
2023/05/05 14:44:03;;;;;;;2.40;1.80;;;;;;;;;;4993811;28;20410;-80